(°C)
23°
24°
24°
24°
24°
23°
22°
(°C)
20°
21°
22°
22°
22°
22°
21°
G
G
G
G
G
G
G
(km/saat)
15-31
16-33
17-34
16-34
16-34
15-33
14-31
(mm)
0
0
0
0.5
1.2
1.6
1.7
(%)
27
38
49
68
77
87
84

Güneşin açısı

/ 70.3°
sun-icon
UV 7
05:37
20:21
Hilal Şişkin (327°)
04:07
17:48

Wilmington Manor (KILG) için METAR

Zaman Koşullar Sıcaklık/
Çiy noktası
Rüzgar Görünürlük Hava Bulutlar Basınç Değiştir Ham
MVFR 22.2°C / 20°C 160º 13kt >10km - Overcast 1500ft - KILG 271610Z 16013KT 7SM OVC015 22/20 A2991 RMK AO2 T02220200
MVFR 21.7°C / 19.4°C 150º 12kt >10km - Overcast 1400ft 1013 - KILG 271551Z 15012KT 7SM OVC014 22/19 A2992 RMK AO2 SLP132 T02170194
MVFR 21.7°C / 19.4°C 150º 12kt >10km - Overcast 1000ft - KILG 271518Z 15012KT 7SM OVC010 22/19 A2993 RMK AO2 T02170194
IFR 21.1°C / 19.4°C 150º variable 004º to 012º 11kt 8000m Mist Vertical Visibility of 0ft. 1013 - KILG 271451Z 15011KT 5SM BR OVC007 21/19 A2994 RMK AO2 CIG 004V012 SLP138 T02110194 58010
IFR 20.6°C / 19.4°C 160º variable 004º to 010º 11kt 4800m Mist Vertical Visibility of 0ft. - KILG 271431Z 16011KT 3SM BR OVC007 21/19 A2995 RMK AO2 CIG 004V010 T02060194
IFR 20.6°C / 19.4°C 150º variable 004º to 012º 11kt 4000m Mist Vertical Visibility of 0ft. - KILG 271422Z 15011KT 2 1/2SM BR OVC007 21/19 A2995 RMK AO2 CIG 004V012 T02060194
IFR 20.6°C / 19.4°C 160º 12kt 6400m Mist Vertical Visibility of 0ft. 1014 - KILG 271351Z 16012KT 4SM BR OVC005 21/19 A2995 RMK AO2 SLP142 T02060194
IFR 20.6°C / 18.9°C 180º 10kt 9700m Mist Vertical Visibility of 0ft. 1014 - KILG 271251Z 18010KT 6SM BR OVC005 21/19 A2997 RMK AO2 SLP149 T02060189
IFR 20°C / 18.9°C 170º 12kt 9700m Mist Vertical Visibility of 0ft. - KILG 271210Z 17012KT 6SM BR OVC005 20/19 A2997 RMK AO2 T02000189 $
LIFR 20°C / 18.9°C 170º 10kt >10km - Overcast 400ft 1014 - KILG 271151Z 17010KT 7SM OVC004 20/19 A2997 RMK AO2 SLP148 70005 T02000189 10200 20183 56010 $
LIFR 19.4°C / 18.9°C 150º 7kt 8000m Mist Vertical Visibility of 0ft. 1015 - KILG 271051Z AUTO 15007KT 5SM BR OVC004 19/19 A2998 RMK AO2 SLP150 T01940189 $
LIFR 19.4°C / 18.3°C 180º 4kt 8000m Mist Vertical Visibility of 0ft. 1015 - KILG 270951Z AUTO 18004KT 5SM BR OVC003 19/18 A3000 RMK AO2 SLP157 T01940183 $
LIFR 18.9°C / 18.3°C 170º 5kt 6400m Mist Vertical Visibility of 0ft. - KILG 270934Z AUTO 17005KT 4SM BR OVC003 19/18 A3000 RMK AO2 T01890183 $
LIFR 18.9°C / 18.3°C 170º 5kt 3200m Mist Vertical Visibility of 0ft.
Overcast 1400ft
- KILG 270917Z AUTO 17005KT 2SM BR BKN004 OVC014 19/18 A3000 RMK AO2 T01890183 $
IFR 18.9°C / 18.3°C 160º 5kt 4000m Mist Vertical Visibility of 0ft.
Overcast 1400ft
- KILG 270905Z AUTO 16005KT 2 1/2SM BR SCT004 OVC014 19/18 A3000 RMK AO2 T01890183 $
MVFR 18.9°C / 18.3°C 180º 5kt 6400m Mist Vertical Visibility of 0ft.
Overcast 1400ft
1015 - KILG 270851Z AUTO 18005KT 4SM BR BKN011 OVC014 19/18 A3000 RMK AO2 SLP159 T01890183 58003 $
IFR 18.9°C / 18.3°C 160º 5kt 6400m Mist Vertical Visibility of 0ft.
Overcast 800ft
1016 - KILG 270751Z AUTO 16005KT 4SM BR SCT003 OVC008 19/18 A3001 RMK AO2 SLP162 T01890183 $
LIFR 18.9°C / 18.3°C 200º 3kt 4000m Mist Vertical Visibility of 0ft. - KILG 270736Z AUTO 20003KT 2 1/2SM BR OVC002 19/18 A3002 RMK AO2 T01890183 $
LIFR 18.3°C / 18.3°C 180º 3kt 2400m Mist Vertical Visibility of 0ft. 1016 - KILG 270651Z AUTO 18003KT 1 1/2SM BR OVC002 18/18 A3002 RMK AO2 SLP165 T01830183 $
LIFR 18.3°C / 17.8°C 170º 4kt 4000m Mist Vertical Visibility of 0ft. - KILG 270639Z AUTO 17004KT 2 1/2SM BR OVC002 18/18 A3002 RMK AO2 T01830178 $
LIFR 18.3°C / 17.8°C 180º 3kt 4800m Mist Vertical Visibility of 0ft. - KILG 270615Z AUTO 18003KT 3SM BR OVC002 18/18 A3003 RMK AO2 T01830178 $
LIFR 18.3°C / 17.8°C 180º 3kt 2000m Mist Vertical Visibility of 0ft. - KILG 270601Z AUTO 18003KT 1 1/4SM BR OVC002 18/18 A3004 RMK AO2 T01830178 $
LIFR 18.3°C / 17.8°C 170º 3kt 1200m. Runway 01: Visual range is 1829m. Mist Vertical Visibility of 0ft. 1017 - KILG 270551Z AUTO 17003KT 3/4SM R01/P6000FT BR VV002 18/18 A3004 RMK AO2 SLP172 60005 T01830178 10189 20183 58020 $
LIFR 18.9°C / 18.3°C 170º 6kt 800m. Runway 01: Visual range is variable from 853m up to 914m. Fog Vertical Visibility of 0ft. 1018 - KILG 270451Z AUTO 17006KT 1/2SM R01/2800V3000FT FG VV002 19/18 A3007 RMK AO2 SLP180 T01890183 402280122 $

MVFR

22.2°C / 20°C

[Daha fazla]
Rüzgar 160º 13kt
Görünürlük >10km
Hava -
Bulutlar Overcast 1500ft
Basınç
Değiştir -
Ham KILG 271610Z 16013KT 7SM OVC015 22/20 A2991 RMK AO2 T02220200

MVFR

21.7°C / 19.4°C

[Daha fazla]
Rüzgar 150º 12kt
Görünürlük >10km
Hava -
Bulutlar Overcast 1400ft
Basınç 1013
Değiştir -
Ham KILG 271551Z 15012KT 7SM OVC014 22/19 A2992 RMK AO2 SLP132 T02170194

MVFR

21.7°C / 19.4°C

[Daha fazla]
Rüzgar 150º 12kt
Görünürlük >10km
Hava -
Bulutlar Overcast 1000ft
Basınç
Değiştir -
Ham KILG 271518Z 15012KT 7SM OVC010 22/19 A2993 RMK AO2 T02170194

IFR

21.1°C / 19.4°C

[Daha fazla]
Rüzgar 150º variable 004º to 012º 11kt
Görünürlük 8000m
Hava Mist
Bulutlar Vertical Visibility of 0ft.
Basınç 1013
Değiştir -
Ham KILG 271451Z 15011KT 5SM BR OVC007 21/19 A2994 RMK AO2 CIG 004V012 SLP138 T02110194 58010

IFR

20.6°C / 19.4°C

[Daha fazla]
Rüzgar 160º variable 004º to 010º 11kt
Görünürlük 4800m
Hava Mist
Bulutlar Vertical Visibility of 0ft.
Basınç
Değiştir -
Ham KILG 271431Z 16011KT 3SM BR OVC007 21/19 A2995 RMK AO2 CIG 004V010 T02060194

IFR

20.6°C / 19.4°C

[Daha fazla]
Rüzgar 150º variable 004º to 012º 11kt
Görünürlük 4000m
Hava Mist
Bulutlar Vertical Visibility of 0ft.
Basınç
Değiştir -
Ham KILG 271422Z 15011KT 2 1/2SM BR OVC007 21/19 A2995 RMK AO2 CIG 004V012 T02060194

IFR

20.6°C / 19.4°C

[Daha fazla]
Rüzgar 160º 12kt
Görünürlük 6400m
Hava Mist
Bulutlar Vertical Visibility of 0ft.
Basınç 1014
Değiştir -
Ham KILG 271351Z 16012KT 4SM BR OVC005 21/19 A2995 RMK AO2 SLP142 T02060194

IFR

20.6°C / 18.9°C

[Daha fazla]
Rüzgar 180º 10kt
Görünürlük 9700m
Hava Mist
Bulutlar Vertical Visibility of 0ft.
Basınç 1014
Değiştir -
Ham KILG 271251Z 18010KT 6SM BR OVC005 21/19 A2997 RMK AO2 SLP149 T02060189

IFR

20°C / 18.9°C

[Daha fazla]
Rüzgar 170º 12kt
Görünürlük 9700m
Hava Mist
Bulutlar Vertical Visibility of 0ft.
Basınç
Değiştir -
Ham KILG 271210Z 17012KT 6SM BR OVC005 20/19 A2997 RMK AO2 T02000189 $

LIFR

20°C / 18.9°C

[Daha fazla]
Rüzgar 170º 10kt
Görünürlük >10km
Hava -
Bulutlar Overcast 400ft
Basınç 1014
Değiştir -
Ham KILG 271151Z 17010KT 7SM OVC004 20/19 A2997 RMK AO2 SLP148 70005 T02000189 10200 20183 56010 $

LIFR

19.4°C / 18.9°C

[Daha fazla]
Rüzgar 150º 7kt
Görünürlük 8000m
Hava Mist
Bulutlar Vertical Visibility of 0ft.
Basınç 1015
Değiştir -
Ham KILG 271051Z AUTO 15007KT 5SM BR OVC004 19/19 A2998 RMK AO2 SLP150 T01940189 $

LIFR

19.4°C / 18.3°C

[Daha fazla]
Rüzgar 180º 4kt
Görünürlük 8000m
Hava Mist
Bulutlar Vertical Visibility of 0ft.
Basınç 1015
Değiştir -
Ham KILG 270951Z AUTO 18004KT 5SM BR OVC003 19/18 A3000 RMK AO2 SLP157 T01940183 $

LIFR

18.9°C / 18.3°C

[Daha fazla]
Rüzgar 170º 5kt
Görünürlük 6400m
Hava Mist
Bulutlar Vertical Visibility of 0ft.
Basınç
Değiştir -
Ham KILG 270934Z AUTO 17005KT 4SM BR OVC003 19/18 A3000 RMK AO2 T01890183 $

LIFR

18.9°C / 18.3°C

[Daha fazla]
Rüzgar 170º 5kt
Görünürlük 3200m
Hava Mist
Bulutlar Vertical Visibility of 0ft.
Overcast 1400ft
Basınç
Değiştir -
Ham KILG 270917Z AUTO 17005KT 2SM BR BKN004 OVC014 19/18 A3000 RMK AO2 T01890183 $

IFR

18.9°C / 18.3°C

[Daha fazla]
Rüzgar 160º 5kt
Görünürlük 4000m
Hava Mist
Bulutlar Vertical Visibility of 0ft.
Overcast 1400ft
Basınç
Değiştir -
Ham KILG 270905Z AUTO 16005KT 2 1/2SM BR SCT004 OVC014 19/18 A3000 RMK AO2 T01890183 $

MVFR

18.9°C / 18.3°C

[Daha fazla]
Rüzgar 180º 5kt
Görünürlük 6400m
Hava Mist
Bulutlar Vertical Visibility of 0ft.
Overcast 1400ft
Basınç 1015
Değiştir -
Ham KILG 270851Z AUTO 18005KT 4SM BR BKN011 OVC014 19/18 A3000 RMK AO2 SLP159 T01890183 58003 $

IFR

18.9°C / 18.3°C

[Daha fazla]
Rüzgar 160º 5kt
Görünürlük 6400m
Hava Mist
Bulutlar Vertical Visibility of 0ft.
Overcast 800ft
Basınç 1016
Değiştir -
Ham KILG 270751Z AUTO 16005KT 4SM BR SCT003 OVC008 19/18 A3001 RMK AO2 SLP162 T01890183 $

LIFR

18.9°C / 18.3°C

[Daha fazla]
Rüzgar 200º 3kt
Görünürlük 4000m
Hava Mist
Bulutlar Vertical Visibility of 0ft.
Basınç
Değiştir -
Ham KILG 270736Z AUTO 20003KT 2 1/2SM BR OVC002 19/18 A3002 RMK AO2 T01890183 $

LIFR

18.3°C / 18.3°C

[Daha fazla]
Rüzgar 180º 3kt
Görünürlük 2400m
Hava Mist
Bulutlar Vertical Visibility of 0ft.
Basınç 1016
Değiştir -
Ham KILG 270651Z AUTO 18003KT 1 1/2SM BR OVC002 18/18 A3002 RMK AO2 SLP165 T01830183 $

LIFR

18.3°C / 17.8°C

[Daha fazla]
Rüzgar 170º 4kt
Görünürlük 4000m
Hava Mist
Bulutlar Vertical Visibility of 0ft.
Basınç
Değiştir -
Ham KILG 270639Z AUTO 17004KT 2 1/2SM BR OVC002 18/18 A3002 RMK AO2 T01830178 $

LIFR

18.3°C / 17.8°C

[Daha fazla]
Rüzgar 180º 3kt
Görünürlük 4800m
Hava Mist
Bulutlar Vertical Visibility of 0ft.
Basınç
Değiştir -
Ham KILG 270615Z AUTO 18003KT 3SM BR OVC002 18/18 A3003 RMK AO2 T01830178 $

LIFR

18.3°C / 17.8°C

[Daha fazla]
Rüzgar 180º 3kt
Görünürlük 2000m
Hava Mist
Bulutlar Vertical Visibility of 0ft.
Basınç
Değiştir -
Ham KILG 270601Z AUTO 18003KT 1 1/4SM BR OVC002 18/18 A3004 RMK AO2 T01830178 $

LIFR

18.3°C / 17.8°C

[Daha fazla]
Rüzgar 170º 3kt
Görünürlük 1200m. Runway 01: Visual range is 1829m.
Hava Mist
Bulutlar Vertical Visibility of 0ft.
Basınç 1017
Değiştir -
Ham KILG 270551Z AUTO 17003KT 3/4SM R01/P6000FT BR VV002 18/18 A3004 RMK AO2 SLP172 60005 T01830178 10189 20183 58020 $

LIFR

18.9°C / 18.3°C

[Daha fazla]
Rüzgar 170º 6kt
Görünürlük 800m. Runway 01: Visual range is variable from 853m up to 914m.
Hava Fog
Bulutlar Vertical Visibility of 0ft.
Basınç 1018
Değiştir -
Ham KILG 270451Z AUTO 17006KT 1/2SM R01/2800V3000FT FG VV002 19/18 A3007 RMK AO2 SLP180 T01890183 402280122 $

Wilmington Manor (KILG) için TAF

From till


From till Wind 160º 12kt. Visibility 9700m. Mist . Overcast 800ft.
From till Wind 180º 12kt. Visibility 10km or more. Scattered Clouds 800ft. Overcast 1200ft.
From till Wind 190º 12kt. Gust 20kt. Visibility 10km or more. Showers Rain in the Vicinity Thunderstorm . Broken Clouds 2000ft. Overcast 5000ft.
From till Wind 170º 9kt. Visibility 9700m. Light Showers Rain . Broken Clouds 2000ft. Overcast 3500ft.
Temporarly from till Visibility 6400m. Showers Rain . Overcast 1000ft.
From till Wind 220º 7kt. Visibility 10km or more. Scattered Clouds 800ft. Broken Clouds 2500ft.

Ham: KILG 271511Z 2715/2812 16012KT 6SM BR OVC008 FM271700 18012KT P6SM SCT008 OVC012 FM271900 19012G20KT P6SM SHRA VCTS BKN020CB OVC050 FM272200 17009KT 6SM -SHRA BKN020 OVC035 TEMPO 2802/2806 4SM SHRA OVC010 FM281100 22007KT P6SM SCT008 BKN025

Wilmington Manor için radar ve yağış nowcast

Çise
Hafif
Orta
Ağır
Çok ağır
Dolu

Konum işaretleyicisi Wilmington Manor üzerine yerleştirilir. Bu animasyon son saat içerisindeki yağış radarını ve 1h tahminini gösterir. Hafif yağmur veya kar yağışı radar için görünmez olabilir. Yağış şiddeti açık mavi ile koyu mor arasındaki renklerle kodlanmıştır.

Wilmington Manor için şu anki uydu görüntüleri, ABD

Konum işaretleyici Wilmington Manor üzerine yerleştirilir. [Daha fazla]

Gerçek zamanlı uydu görüntüsü gündüz süresince görülür ışığı gece süresince kızılötesi ışınım ile birleştirir. Gece kızılötesi ışınım sıcaklık farklarını algılayabildiğinden dolayı görüntü karanlık değildir. Ancak düşük bulutları ve sisi yer sıcaklığından ayırmak zordur ve bu nedenle gece boyunca neredeyse görünmez olabilirler. Avrupa için Meteosat uydu görüntüleri gerçek zamanlı olarak her 5 dakikada bir güncellenir. GOES-16/GOES-17 (Kuzey ve Güney Amerika) ve Himawari (Asya) görüntüleri her 10 dakikada bir güncellenir.

En başa git